sensor_id;sensor_type;location;lat;lon;timestamp;P1;durP1;ratioP1;P2;durP2;ratioP2
21507;SDS011;10915;54.352;9.074;2023-12-07T00:04:28;513.83;;;150.50;;
21507;SDS011;10915;54.352;9.074;2023-12-07T00:06:54;440.67;;;135.60;;
21507;SDS011;10915;54.352;9.074;2023-12-07T00:09:22;908.80;;;194.00;;
21507;SDS011;10915;54.352;9.074;2023-12-07T00:11:47;752.10;;;192.90;;
21507;SDS011;10915;54.352;9.074;2023-12-07T00:14:13;508.37;;;147.50;;
21507;SDS011;10915;54.352;9.074;2023-12-07T00:34:47;454.23;;;129.93;;
21507;SDS011;10915;54.352;9.074;2023-12-07T00:37:14;415.93;;;126.87;;
21507;SDS011;10915;54.352;9.074;2023-12-07T00:39:40;439.40;;;128.97;;
21507;SDS011;10915;54.352;9.074;2023-12-07T00:42:06;380.63;;;115.37;;
21507;SDS011;10915;54.352;9.074;2023-12-07T00:44:32;354.03;;;109.17;;
21507;SDS011;10915;54.352;9.074;2023-12-07T00:46:57;518.10;;;143.57;;
21507;SDS011;10915;54.352;9.074;2023-12-07T00:49:23;635.67;;;164.60;;
21507;SDS011;10915;54.352;9.074;2023-12-07T00:51:48;409.23;;;124.37;;
21507;SDS011;10915;54.352;9.074;2023-12-07T00:54:14;479.63;;;136.50;;
21507;SDS011;10915;54.352;9.074;2023-12-07T00:56:40;426.00;;;124.47;;
21507;SDS011;10915;54.352;9.074;2023-12-07T00:59:05;588.20;;;153.53;;
21507;SDS011;10915;54.352;9.074;2023-12-07T01:01:31;561.53;;;154.53;;
21507;SDS011;10915;54.352;9.074;2023-12-07T01:03:57;440.03;;;129.63;;
21507;SDS011;10915;54.352;9.074;2023-12-07T01:06:23;382.00;;;101.93;;
21507;SDS011;10915;54.352;9.074;2023-12-07T01:08:48;385.93;;;120.33;;
21507;SDS011;10915;54.352;9.074;2023-12-07T01:11:14;451.27;;;127.87;;
21507;SDS011;10915;54.352;9.074;2023-12-07T01:13:39;445.03;;;128.07;;
21507;SDS011;10915;54.352;9.074;2023-12-07T01:16:05;498.43;;;134.90;;
21507;SDS011;10915;54.352;9.074;2023-12-07T01:18:31;406.57;;;123.13;;
21507;SDS011;10915;54.352;9.074;2023-12-07T01:20:57;472.20;;;131.10;;
21507;SDS011;10915;54.352;9.074;2023-12-07T01:23:23;444.20;;;125.30;;
21507;SDS011;10915;54.352;9.074;2023-12-07T01:25:49;402.73;;;120.03;;
21507;SDS011;10915;54.352;9.074;2023-12-07T01:28:14;436.27;;;125.97;;
21507;SDS011;10915;54.352;9.074;2023-12-07T01:30:40;410.27;;;119.23;;
21507;SDS011;10915;54.352;9.074;2023-12-07T01:33:05;413.53;;;122.40;;
21507;SDS011;10915;54.352;9.074;2023-12-07T01:35:31;399.97;;;119.33;;
21507;SDS011;10915;54.352;9.074;2023-12-07T01:37:56;420.30;;;116.37;;
21507;SDS011;10915;54.352;9.074;2023-12-07T01:40:22;440.10;;;121.47;;
21507;SDS011;10915;54.352;9.074;2023-12-07T01:42:51;459.97;;;124.80;;
21507;SDS011;10915;54.352;9.074;2023-12-07T01:45:19;392.27;;;120.23;;
21507;SDS011;10915;54.352;9.074;2023-12-07T01:47:45;381.83;;;112.97;;
21507;SDS011;10915;54.352;9.074;2023-12-07T01:50:11;440.97;;;120.17;;
21507;SDS011;10915;54.352;9.074;2023-12-07T01:52:41;443.03;;;120.97;;
21507;SDS011;10915;54.352;9.074;2023-12-07T01:55:10;479.57;;;129.23;;
21507;SDS011;10915;54.352;9.074;2023-12-07T01:57:37;761.50;;;133.27;;
21507;SDS011;10915;54.352;9.074;2023-12-07T02:00:03;455.87;;;96.67;;
21507;SDS011;10915;54.352;9.074;2023-12-07T02:02:30;450.63;;;91.50;;
21507;SDS011;10915;54.352;9.074;2023-12-07T02:04:57;405.23;;;88.90;;
21507;SDS011;10915;54.352;9.074;2023-12-07T02:17:33;541.60;;;104.67;;
21507;SDS011;10915;54.352;9.074;2023-12-07T02:22:49;448.83;;;93.07;;
21507;SDS011;10915;54.352;9.074;2023-12-07T02:25:21;506.10;;;100.27;;
21507;SDS011;10915;54.352;9.074;2023-12-07T02:27:51;519.03;;;103.87;;
21507;SDS011;10915;54.352;9.074;2023-12-07T02:30:16;574.07;;;107.23;;
21507;SDS011;10915;54.352;9.074;2023-12-07T02:32:43;606.30;;;99.83;;
21507;SDS011;10915;54.352;9.074;2023-12-07T02:35:10;453.50;;;96.33;;
21507;SDS011;10915;54.352;9.074;2023-12-07T02:37:44;430.97;;;93.40;;
21507;SDS011;10915;54.352;9.074;2023-12-07T02:40:12;427.63;;;94.90;;
21507;SDS011;10915;54.352;9.074;2023-12-07T02:42:40;483.27;;;96.83;;
21507;SDS011;10915;54.352;9.074;2023-12-07T02:45:06;521.40;;;111.23;;
21507;SDS011;10915;54.352;9.074;2023-12-07T02:47:32;594.40;;;117.20;;
21507;SDS011;10915;54.352;9.074;2023-12-07T02:49:58;694.83;;;119.57;;
21507;SDS011;10915;54.352;9.074;2023-12-07T02:52:24;520.63;;;106.83;;
21507;SDS011;10915;54.352;9.074;2023-12-07T02:54:50;490.60;;;105.37;;
21507;SDS011;10915;54.352;9.074;2023-12-07T02:57:15;573.80;;;108.60;;
21507;SDS011;10915;54.352;9.074;2023-12-07T02:59:41;524.93;;;103.40;;
21507;SDS011;10915;54.352;9.074;2023-12-07T03:02:06;502.33;;;99.50;;
21507;SDS011;10915;54.352;9.074;2023-12-07T03:04:32;373.83;;;81.93;;
21507;SDS011;10915;54.352;9.074;2023-12-07T03:06:58;464.17;;;88.13;;
21507;SDS011;10915;54.352;9.074;2023-12-07T03:09:23;422.10;;;83.13;;
21507;SDS011;10915;54.352;9.074;2023-12-07T03:11:49;603.97;;;112.87;;
21507;SDS011;10915;54.352;9.074;2023-12-07T03:14:15;525.33;;;100.57;;
21507;SDS011;10915;54.352;9.074;2023-12-07T03:16:41;436.47;;;87.13;;
21507;SDS011;10915;54.352;9.074;2023-12-07T03:19:07;349.17;;;76.80;;
21507;SDS011;10915;54.352;9.074;2023-12-07T03:21:32;419.53;;;89.17;;
21507;SDS011;10915;54.352;9.074;2023-12-07T03:23:58;356.07;;;79.83;;
21507;SDS011;10915;54.352;9.074;2023-12-07T03:26:23;494.87;;;96.37;;
21507;SDS011;10915;54.352;9.074;2023-12-07T03:28:49;375.97;;;80.60;;
21507;SDS011;10915;54.352;9.074;2023-12-07T03:31:15;363.67;;;86.17;;
21507;SDS011;10915;54.352;9.074;2023-12-07T03:33:43;389.07;;;84.40;;
21507;SDS011;10915;54.352;9.074;2023-12-07T03:36:12;341.07;;;75.87;;
21507;SDS011;10915;54.352;9.074;2023-12-07T03:38:38;350.77;;;80.50;;
21507;SDS011;10915;54.352;9.074;2023-12-07T03:41:04;435.30;;;85.87;;
21507;SDS011;10915;54.352;9.074;2023-12-07T03:43:29;393.30;;;86.97;;
21507;SDS011;10915;54.352;9.074;2023-12-07T03:45:55;364.00;;;82.53;;
21507;SDS011;10915;54.352;9.074;2023-12-07T03:48:20;379.63;;;79.93;;
21507;SDS011;10915;54.352;9.074;2023-12-07T03:50:46;848.07;;;119.47;;
21507;SDS011;10915;54.352;9.074;2023-12-07T03:53:11;756.23;;;123.90;;
21507;SDS011;10915;54.352;9.074;2023-12-07T03:55:37;1151.80;;;151.83;;
21507;SDS011;10915;54.352;9.074;2023-12-07T03:58:03;1122.77;;;137.87;;
21507;SDS011;10915;54.352;9.074;2023-12-07T04:00:30;954.83;;;136.40;;
21507;SDS011;10915;54.352;9.074;2023-12-07T04:02:57;1292.77;;;160.93;;
21507;SDS011;10915;54.352;9.074;2023-12-07T04:05:23;1432.00;;;181.40;;
21507;SDS011;10915;54.352;9.074;2023-12-07T04:07:48;1023.10;;;155.07;;
21507;SDS011;10915;54.352;9.074;2023-12-07T04:10:14;1056.03;;;145.00;;
21507;SDS011;10915;54.352;9.074;2023-12-07T04:12:40;979.60;;;137.73;;
21507;SDS011;10915;54.352;9.074;2023-12-07T04:15:06;1245.30;;;171.70;;
21507;SDS011;10915;54.352;9.074;2023-12-07T04:17:32;1493.00;;;193.47;;
21507;SDS011;10915;54.352;9.074;2023-12-07T04:19:57;1228.47;;;182.23;;
21507;SDS011;10915;54.352;9.074;2023-12-07T04:22:23;1015.30;;;146.13;;
21507;SDS011;10915;54.352;9.074;2023-12-07T04:24:48;1108.47;;;157.63;;
21507;SDS011;10915;54.352;9.074;2023-12-07T04:27:14;1293.20;;;170.33;;
21507;SDS011;10915;54.352;9.074;2023-12-07T04:29:40;1098.30;;;155.87;;
21507;SDS011;10915;54.352;9.074;2023-12-07T04:32:06;1221.43;;;158.67;;
21507;SDS011;10915;54.352;9.074;2023-12-07T04:34:32;1447.47;;;200.87;;
21507;SDS011;10915;54.352;9.074;2023-12-07T04:36:57;936.97;;;140.10;;
21507;SDS011;10915;54.352;9.074;2023-12-07T04:39:23;959.43;;;162.53;;
21507;SDS011;10915;54.352;9.074;2023-12-07T04:41:49;751.63;;;135.63;;
21507;SDS011;10915;54.352;9.074;2023-12-07T04:44:14;531.27;;;103.37;;
21507;SDS011;10915;54.352;9.074;2023-12-07T04:46:40;398.10;;;91.23;;
21507;SDS011;10915;54.352;9.074;2023-12-07T04:49:07;409.07;;;82.27;;
21507;SDS011;10915;54.352;9.074;2023-12-07T04:51:32;479.83;;;105.93;;
21507;SDS011;10915;54.352;9.074;2023-12-07T04:53:58;472.30;;;102.80;;
21507;SDS011;10915;54.352;9.074;2023-12-07T04:56:23;592.03;;;115.50;;
21507;SDS011;10915;54.352;9.074;2023-12-07T04:58:49;518.23;;;102.47;;
21507;SDS011;10915;54.352;9.074;2023-12-07T05:01:15;540.53;;;99.40;;
21507;SDS011;10915;54.352;9.074;2023-12-07T05:03:40;598.10;;;100.63;;
21507;SDS011;10915;54.352;9.074;2023-12-07T05:06:06;647.13;;;114.07;;
21507;SDS011;10915;54.352;9.074;2023-12-07T05:08:32;399.47;;;82.43;;
21507;SDS011;10915;54.352;9.074;2023-12-07T05:10:58;486.93;;;93.53;;
21507;SDS011;10915;54.352;9.074;2023-12-07T05:13:24;685.60;;;110.17;;
21507;SDS011;10915;54.352;9.074;2023-12-07T05:15:49;465.97;;;94.17;;
21507;SDS011;10915;54.352;9.074;2023-12-07T05:18:15;481.47;;;114.73;;
21507;SDS011;10915;54.352;9.074;2023-12-07T05:20:40;487.97;;;109.40;;
21507;SDS011;10915;54.352;9.074;2023-12-07T05:23:06;388.93;;;94.73;;
21507;SDS011;10915;54.352;9.074;2023-12-07T05:25:32;347.93;;;91.37;;
21507;SDS011;10915;54.352;9.074;2023-12-07T05:27:58;489.27;;;107.07;;
21507;SDS011;10915;54.352;9.074;2023-12-07T05:30:23;383.07;;;93.97;;
21507;SDS011;10915;54.352;9.074;2023-12-07T05:32:49;415.70;;;100.37;;
21507;SDS011;10915;54.352;9.074;2023-12-07T05:35:15;440.47;;;106.17;;
21507;SDS011;10915;54.352;9.074;2023-12-07T05:37:41;323.57;;;83.67;;
21507;SDS011;10915;54.352;9.074;2023-12-07T05:40:07;447.07;;;102.30;;
21507;SDS011;10915;54.352;9.074;2023-12-07T05:42:34;433.97;;;99.93;;
21507;SDS011;10915;54.352;9.074;2023-12-07T05:45:00;382.30;;;95.80;;
21507;SDS011;10915;54.352;9.074;2023-12-07T05:47:26;506.63;;;109.30;;
21507;SDS011;10915;54.352;9.074;2023-12-07T05:49:52;445.23;;;100.87;;
21507;SDS011;10915;54.352;9.074;2023-12-07T05:52:17;362.93;;;92.77;;
21507;SDS011;10915;54.352;9.074;2023-12-07T05:54:43;409.93;;;96.90;;
21507;SDS011;10915;54.352;9.074;2023-12-07T05:57:11;447.37;;;106.70;;
21507;SDS011;10915;54.352;9.074;2023-12-07T05:59:38;426.27;;;100.87;;
21507;SDS011;10915;54.352;9.074;2023-12-07T06:02:04;384.67;;;93.67;;
21507;SDS011;10915;54.352;9.074;2023-12-07T06:04:30;583.57;;;120.13;;
21507;SDS011;10915;54.352;9.074;2023-12-07T06:06:56;537.40;;;117.80;;
21507;SDS011;10915;54.352;9.074;2023-12-07T06:09:21;674.47;;;117.73;;
21507;SDS011;10915;54.352;9.074;2023-12-07T06:11:47;545.00;;;116.13;;
21507;SDS011;10915;54.352;9.074;2023-12-07T06:14:13;755.07;;;129.40;;
21507;SDS011;10915;54.352;9.074;2023-12-07T06:16:38;319.07;;;82.73;;
21507;SDS011;10915;54.352;9.074;2023-12-07T06:19:04;482.00;;;104.57;;
21507;SDS011;10915;54.352;9.074;2023-12-07T06:21:30;470.47;;;104.00;;
21507;SDS011;10915;54.352;9.074;2023-12-07T06:23:56;495.10;;;111.43;;
21507;SDS011;10915;54.352;9.074;2023-12-07T06:26:22;679.37;;;129.23;;
21507;SDS011;10915;54.352;9.074;2023-12-07T06:28:47;407.63;;;97.97;;
21507;SDS011;10915;54.352;9.074;2023-12-07T06:31:13;634.67;;;137.03;;
21507;SDS011;10915;54.352;9.074;2023-12-07T06:33:44;608.50;;;121.63;;
21507;SDS011;10915;54.352;9.074;2023-12-07T06:36:10;457.73;;;102.23;;
21507;SDS011;10915;54.352;9.074;2023-12-07T06:38:42;890.73;;;142.80;;
21507;SDS011;10915;54.352;9.074;2023-12-07T06:41:08;661.33;;;125.73;;
21507;SDS011;10915;54.352;9.074;2023-12-07T06:43:33;600.73;;;116.60;;
21507;SDS011;10915;54.352;9.074;2023-12-07T06:45:59;768.10;;;148.07;;
21507;SDS011;10915;54.352;9.074;2023-12-07T06:48:24;922.07;;;150.53;;
21507;SDS011;10915;54.352;9.074;2023-12-07T06:50:50;790.03;;;144.30;;
21507;SDS011;10915;54.352;9.074;2023-12-07T06:53:16;548.30;;;120.70;;
21507;SDS011;10915;54.352;9.074;2023-12-07T06:55:43;542.33;;;115.00;;
21507;SDS011;10915;54.352;9.074;2023-12-07T06:58:09;959.93;;;148.70;;
21507;SDS011;10915;54.352;9.074;2023-12-07T07:00:35;575.50;;;122.10;;
21507;SDS011;10915;54.352;9.074;2023-12-07T07:03:01;1107.70;;;166.57;;
21507;SDS011;10915;54.352;9.074;2023-12-07T07:05:27;1069.30;;;163.03;;
21507;SDS011;10915;54.352;9.074;2023-12-07T07:07:53;798.60;;;139.40;;
21507;SDS011;10915;54.352;9.074;2023-12-07T07:10:20;410.13;;;101.03;;
21507;SDS011;10915;54.352;9.074;2023-12-07T07:12:46;373.13;;;96.00;;
21507;SDS011;10915;54.352;9.074;2023-12-07T07:15:11;936.50;;;153.87;;
21507;SDS011;10915;54.352;9.074;2023-12-07T07:17:37;755.53;;;141.67;;
21507;SDS011;10915;54.352;9.074;2023-12-07T07:20:03;628.10;;;116.93;;
21507;SDS011;10915;54.352;9.074;2023-12-07T07:22:29;636.17;;;121.37;;
21507;SDS011;10915;54.352;9.074;2023-12-07T07:24:54;510.63;;;111.33;;
21507;SDS011;10915;54.352;9.074;2023-12-07T07:27:20;332.33;;;89.27;;
21507;SDS011;10915;54.352;9.074;2023-12-07T07:29:45;432.83;;;100.00;;
21507;SDS011;10915;54.352;9.074;2023-12-07T07:32:11;581.60;;;110.50;;
21507;SDS011;10915;54.352;9.074;2023-12-07T07:34:37;515.00;;;108.97;;
21507;SDS011;10915;54.352;9.074;2023-12-07T07:37:03;370.40;;;92.07;;
21507;SDS011;10915;54.352;9.074;2023-12-07T07:39:29;881.67;;;135.57;;
21507;SDS011;10915;54.352;9.074;2023-12-07T07:41:55;676.80;;;124.93;;
21507;SDS011;10915;54.352;9.074;2023-12-07T07:44:20;535.87;;;111.77;;
21507;SDS011;10915;54.352;9.074;2023-12-07T07:46:46;573.30;;;117.97;;
21507;SDS011;10915;54.352;9.074;2023-12-07T07:49:14;697.00;;;131.93;;
21507;SDS011;10915;54.352;9.074;2023-12-07T07:51:40;960.70;;;157.77;;
21507;SDS011;10915;54.352;9.074;2023-12-07T07:54:05;841.97;;;144.13;;
21507;SDS011;10915;54.352;9.074;2023-12-07T07:56:31;711.23;;;130.33;;
21507;SDS011;10915;54.352;9.074;2023-12-07T07:58:57;958.17;;;146.70;;
21507;SDS011;10915;54.352;9.074;2023-12-07T08:01:25;1086.03;;;158.60;;
21507;SDS011;10915;54.352;9.074;2023-12-07T08:03:51;730.40;;;133.83;;
21507;SDS011;10915;54.352;9.074;2023-12-07T08:06:16;396.17;;;98.73;;
21507;SDS011;10915;54.352;9.074;2023-12-07T08:08:42;455.80;;;102.53;;
21507;SDS011;10915;54.352;9.074;2023-12-07T08:11:08;334.17;;;85.23;;
21507;SDS011;10915;54.352;9.074;2023-12-07T08:13:33;319.27;;;82.33;;
21507;SDS011;10915;54.352;9.074;2023-12-07T08:15:59;398.30;;;97.83;;
21507;SDS011;10915;54.352;9.074;2023-12-07T08:18:25;423.13;;;96.40;;
21507;SDS011;10915;54.352;9.074;2023-12-07T08:20:51;414.70;;;92.90;;
21507;SDS011;10915;54.352;9.074;2023-12-07T08:23:16;539.50;;;113.67;;
21507;SDS011;10915;54.352;9.074;2023-12-07T08:25:42;559.40;;;113.57;;
21507;SDS011;10915;54.352;9.074;2023-12-07T08:28:08;441.80;;;101.47;;
21507;SDS011;10915;54.352;9.074;2023-12-07T08:30:34;466.10;;;103.13;;
21507;SDS011;10915;54.352;9.074;2023-12-07T09:27:53;487.93;;;106.53;;
21507;SDS011;10915;54.352;9.074;2023-12-07T09:44:55;791.87;;;120.53;;
21507;SDS011;10915;54.352;9.074;2023-12-07T10:02:25;901.20;;;120.77;;
21507;SDS011;10915;54.352;9.074;2023-12-07T10:05:15;968.50;;;137.13;;
21507;SDS011;10915;54.352;9.074;2023-12-07T10:07:55;501.93;;;94.17;;
21507;SDS011;10915;54.352;9.074;2023-12-07T10:10:24;644.20;;;105.67;;
21507;SDS011;10915;54.352;9.074;2023-12-07T10:12:56;756.13;;;113.87;;
21507;SDS011;10915;54.352;9.074;2023-12-07T10:15:56;1184.37;;;147.30;;
21507;SDS011;10915;54.352;9.074;2023-12-07T10:18:34;634.43;;;100.73;;
21507;SDS011;10915;54.352;9.074;2023-12-07T10:21:03;460.50;;;90.57;;
21507;SDS011;10915;54.352;9.074;2023-12-07T10:23:29;726.50;;;116.67;;
21507;SDS011;10915;54.352;9.074;2023-12-07T10:26:14;970.07;;;131.63;;
21507;SDS011;10915;54.352;9.074;2023-12-07T10:31:50;534.37;;;100.83;;
21507;SDS011;10915;54.352;9.074;2023-12-07T10:34:19;672.87;;;113.20;;
21507;SDS011;10915;54.352;9.074;2023-12-07T10:36:48;514.40;;;100.73;;
21507;SDS011;10915;54.352;9.074;2023-12-07T10:39:22;395.10;;;95.73;;
21507;SDS011;10915;54.352;9.074;2023-12-07T10:41:52;658.40;;;125.27;;
21507;SDS011;10915;54.352;9.074;2023-12-07T10:44:27;495.53;;;103.93;;
21507;SDS011;10915;54.352;9.074;2023-12-07T10:46:54;351.57;;;89.53;;
21507;SDS011;10915;54.352;9.074;2023-12-07T10:49:21;682.33;;;104.13;;
21507;SDS011;10915;54.352;9.074;2023-12-07T10:51:54;633.37;;;98.57;;
21507;SDS011;10915;54.352;9.074;2023-12-07T10:54:26;498.23;;;92.37;;
21507;SDS011;10915;54.352;9.074;2023-12-07T10:57:17;287.70;;;74.20;;
21507;SDS011;10915;54.352;9.074;2023-12-07T10:59:44;675.73;;;111.57;;
21507;SDS011;10915;54.352;9.074;2023-12-07T11:02:12;777.30;;;116.10;;
21507;SDS011;10915;54.352;9.074;2023-12-07T11:04:40;839.93;;;117.87;;
21507;SDS011;10915;54.352;9.074;2023-12-07T11:07:08;270.13;;;73.07;;
21507;SDS011;10915;54.352;9.074;2023-12-07T11:09:39;573.90;;;102.87;;
21507;SDS011;10915;54.352;9.074;2023-12-07T11:12:18;352.97;;;81.03;;
21507;SDS011;10915;54.352;9.074;2023-12-07T11:14:53;387.10;;;85.63;;
21507;SDS011;10915;54.352;9.074;2023-12-07T11:17:20;524.23;;;97.60;;
21507;SDS011;10915;54.352;9.074;2023-12-07T11:19:47;564.70;;;96.97;;
21507;SDS011;10915;54.352;9.074;2023-12-07T11:22:13;309.83;;;69.37;;
21507;SDS011;10915;54.352;9.074;2023-12-07T11:25:12;456.43;;;91.63;;
21507;SDS011;10915;54.352;9.074;2023-12-07T11:27:31;455.10;;;92.67;;
21507;SDS011;10915;54.352;9.074;2023-12-07T11:30:01;536.50;;;95.80;;
21507;SDS011;10915;54.352;9.074;2023-12-07T11:32:28;293.10;;;76.03;;
21507;SDS011;10915;54.352;9.074;2023-12-07T11:34:54;300.87;;;77.57;;
21507;SDS011;10915;54.352;9.074;2023-12-07T11:37:19;354.17;;;81.63;;
21507;SDS011;10915;54.352;9.074;2023-12-07T11:39:45;386.03;;;81.30;;
21507;SDS011;10915;54.352;9.074;2023-12-07T11:44:41;557.00;;;94.43;;
21507;SDS011;10915;54.352;9.074;2023-12-07T11:47:08;547.50;;;92.47;;
21507;SDS011;10915;54.352;9.074;2023-12-07T11:49:34;349.93;;;75.00;;
21507;SDS011;10915;54.352;9.074;2023-12-07T11:52:00;336.07;;;79.77;;
21507;SDS011;10915;54.352;9.074;2023-12-07T11:54:36;391.00;;;76.47;;
21507;SDS011;10915;54.352;9.074;2023-12-07T11:57:02;358.00;;;75.03;;
21507;SDS011;10915;54.352;9.074;2023-12-07T11:59:29;185.33;;;52.73;;
21507;SDS011;10915;54.352;9.074;2023-12-07T12:01:55;231.37;;;54.90;;
21507;SDS011;10915;54.352;9.074;2023-12-07T12:04:24;192.27;;;53.40;;
21507;SDS011;10915;54.352;9.074;2023-12-07T12:06:50;189.03;;;53.93;;
21507;SDS011;10915;54.352;9.074;2023-12-07T12:09:15;565.70;;;83.73;;
21507;SDS011;10915;54.352;9.074;2023-12-07T12:11:44;595.03;;;81.87;;
21507;SDS011;10915;54.352;9.074;2023-12-07T12:14:12;263.17;;;59.50;;
21507;SDS011;10915;54.352;9.074;2023-12-07T12:16:41;629.20;;;85.60;;
21507;SDS011;10915;54.352;9.074;2023-12-07T12:19:11;557.80;;;73.00;;
21507;SDS011;10915;54.352;9.074;2023-12-07T12:21:37;354.63;;;58.70;;
21507;SDS011;10915;54.352;9.074;2023-12-07T12:24:06;270.67;;;56.17;;
21507;SDS011;10915;54.352;9.074;2023-12-07T12:26:35;337.40;;;54.97;;
21507;SDS011;10915;54.352;9.074;2023-12-07T12:29:04;164.87;;;50.03;;
21507;SDS011;10915;54.352;9.074;2023-12-07T12:31:31;139.17;;;46.73;;
21507;SDS011;10915;54.352;9.074;2023-12-07T12:33:57;127.43;;;44.90;;
21507;SDS011;10915;54.352;9.074;2023-12-07T12:36:26;224.50;;;56.37;;
21507;SDS011;10915;54.352;9.074;2023-12-07T12:38:53;535.17;;;78.37;;
21507;SDS011;10915;54.352;9.074;2023-12-07T12:41:23;232.73;;;55.83;;
21507;SDS011;10915;54.352;9.074;2023-12-07T12:43:49;226.40;;;55.80;;
21507;SDS011;10915;54.352;9.074;2023-12-07T12:46:16;281.83;;;58.67;;
21507;SDS011;10915;54.352;9.074;2023-12-07T12:48:52;149.80;;;48.57;;
21507;SDS011;10915;54.352;9.074;2023-12-07T12:51:23;429.70;;;69.43;;
21507;SDS011;10915;54.352;9.074;2023-12-07T12:53:50;279.07;;;55.57;;
21507;SDS011;10915;54.352;9.074;2023-12-07T12:56:16;173.10;;;51.00;;
21507;SDS011;10915;54.352;9.074;2023-12-07T12:58:44;455.37;;;65.13;;
21507;SDS011;10915;54.352;9.074;2023-12-07T13:01:10;466.60;;;75.03;;
21507;SDS011;10915;54.352;9.074;2023-12-07T13:03:36;497.20;;;76.37;;
21507;SDS011;10915;54.352;9.074;2023-12-07T13:06:02;591.10;;;86.83;;
21507;SDS011;10915;54.352;9.074;2023-12-07T13:08:28;497.30;;;75.80;;
21507;SDS011;10915;54.352;9.074;2023-12-07T13:10:54;592.83;;;90.20;;
21507;SDS011;10915;54.352;9.074;2023-12-07T13:13:20;118.87;;;44.67;;
21507;SDS011;10915;54.352;9.074;2023-12-07T13:15:45;640.00;;;92.73;;
21507;SDS011;10915;54.352;9.074;2023-12-07T13:18:11;350.30;;;63.57;;
21507;SDS011;10915;54.352;9.074;2023-12-07T13:20:37;299.73;;;58.63;;
21507;SDS011;10915;54.352;9.074;2023-12-07T13:23:04;357.13;;;67.83;;
21507;SDS011;10915;54.352;9.074;2023-12-07T13:25:29;336.63;;;69.00;;
21507;SDS011;10915;54.352;9.074;2023-12-07T13:27:55;267.33;;;65.10;;
21507;SDS011;10915;54.352;9.074;2023-12-07T13:30:21;262.37;;;58.37;;
21507;SDS011;10915;54.352;9.074;2023-12-07T13:32:46;258.93;;;59.33;;
21507;SDS011;10915;54.352;9.074;2023-12-07T13:35:13;323.17;;;64.47;;
21507;SDS011;10915;54.352;9.074;2023-12-07T13:37:38;204.37;;;53.53;;
21507;SDS011;10915;54.352;9.074;2023-12-07T13:40:04;274.17;;;46.60;;
21507;SDS011;10915;54.352;9.074;2023-12-07T13:42:35;420.70;;;51.03;;
21507;SDS011;10915;54.352;9.074;2023-12-07T13:45:01;454.07;;;55.97;;
21507;SDS011;10915;54.352;9.074;2023-12-07T13:47:27;665.90;;;80.23;;
21507;SDS011;10915;54.352;9.074;2023-12-07T13:49:57;475.23;;;58.73;;
21507;SDS011;10915;54.352;9.074;2023-12-07T13:52:24;183.53;;;41.47;;
21507;SDS011;10915;54.352;9.074;2023-12-07T13:54:50;293.33;;;50.93;;
21507;SDS011;10915;54.352;9.074;2023-12-07T13:57:15;480.50;;;63.60;;
21507;SDS011;10915;54.352;9.074;2023-12-07T13:59:41;343.80;;;49.53;;
21507;SDS011;10915;54.352;9.074;2023-12-07T14:02:07;395.33;;;59.77;;
21507;SDS011;10915;54.352;9.074;2023-12-07T14:04:33;281.23;;;48.77;;
21507;SDS011;10915;54.352;9.074;2023-12-07T14:07:12;304.80;;;49.70;;
21507;SDS011;10915;54.352;9.074;2023-12-07T14:09:40;372.93;;;49.70;;
21507;SDS011;10915;54.352;9.074;2023-12-07T14:12:07;298.17;;;47.50;;
21507;SDS011;10915;54.352;9.074;2023-12-07T14:14:35;257.93;;;46.40;;
21507;SDS011;10915;54.352;9.074;2023-12-07T14:17:01;387.93;;;57.17;;
21507;SDS011;10915;54.352;9.074;2023-12-07T14:19:26;321.40;;;49.90;;
21507;SDS011;10915;54.352;9.074;2023-12-07T14:21:53;303.77;;;51.57;;
21507;SDS011;10915;54.352;9.074;2023-12-07T14:24:19;254.63;;;48.47;;
21507;SDS011;10915;54.352;9.074;2023-12-07T14:26:45;314.10;;;52.53;;
21507;SDS011;10915;54.352;9.074;2023-12-07T14:29:10;158.57;;;41.37;;
21507;SDS011;10915;54.352;9.074;2023-12-07T14:31:40;176.30;;;47.00;;
21507;SDS011;10915;54.352;9.074;2023-12-07T14:34:09;378.67;;;58.80;;
21507;SDS011;10915;54.352;9.074;2023-12-07T14:36:35;360.20;;;59.30;;
21507;SDS011;10915;54.352;9.074;2023-12-07T14:39:03;269.30;;;48.03;;
21507;SDS011;10915;54.352;9.074;2023-12-07T14:41:31;509.27;;;74.33;;
21507;SDS011;10915;54.352;9.074;2023-12-07T14:43:57;546.27;;;72.07;;
21507;SDS011;10915;54.352;9.074;2023-12-07T14:46:23;389.27;;;57.27;;
21507;SDS011;10915;54.352;9.074;2023-12-07T14:48:48;333.37;;;56.80;;
21507;SDS011;10915;54.352;9.074;2023-12-07T14:51:17;333.17;;;52.63;;
21507;SDS011;10915;54.352;9.074;2023-12-07T14:53:45;340.60;;;61.13;;
21507;SDS011;10915;54.352;9.074;2023-12-07T14:56:11;461.80;;;65.17;;
21507;SDS011;10915;54.352;9.074;2023-12-07T14:58:37;335.80;;;54.13;;
21507;SDS011;10915;54.352;9.074;2023-12-07T15:01:04;380.30;;;54.27;;
21507;SDS011;10915;54.352;9.074;2023-12-07T15:03:30;438.43;;;62.37;;
21507;SDS011;10915;54.352;9.074;2023-12-07T15:05:56;424.87;;;56.97;;
21507;SDS011;10915;54.352;9.074;2023-12-07T15:08:22;318.43;;;52.17;;
21507;SDS011;10915;54.352;9.074;2023-12-07T15:10:47;460.23;;;67.77;;
21507;SDS011;10915;54.352;9.074;2023-12-07T15:13:17;481.13;;;64.60;;
21507;SDS011;10915;54.352;9.074;2023-12-07T15:15:42;287.67;;;46.67;;
21507;SDS011;10915;54.352;9.074;2023-12-07T15:18:09;339.70;;;54.27;;
21507;SDS011;10915;54.352;9.074;2023-12-07T15:20:34;359.93;;;52.90;;
21507;SDS011;10915;54.352;9.074;2023-12-07T15:23:00;318.50;;;49.77;;
21507;SDS011;10915;54.352;9.074;2023-12-07T15:25:27;525.87;;;67.40;;
21507;SDS011;10915;54.352;9.074;2023-12-07T15:27:54;377.00;;;52.87;;
21507;SDS011;10915;54.352;9.074;2023-12-07T15:30:19;437.47;;;55.73;;
21507;SDS011;10915;54.352;9.074;2023-12-07T15:32:49;384.90;;;56.67;;
21507;SDS011;10915;54.352;9.074;2023-12-07T15:35:15;448.10;;;60.13;;
21507;SDS011;10915;54.352;9.074;2023-12-07T15:37:41;487.37;;;72.47;;
21507;SDS011;10915;54.352;9.074;2023-12-07T15:40:07;284.30;;;51.27;;
21507;SDS011;10915;54.352;9.074;2023-12-07T15:42:35;225.20;;;43.73;;
21507;SDS011;10915;54.352;9.074;2023-12-07T15:45:02;556.73;;;75.63;;
21507;SDS011;10915;54.352;9.074;2023-12-07T15:47:29;344.20;;;61.53;;
21507;SDS011;10915;54.352;9.074;2023-12-07T15:49:54;353.70;;;52.70;;
21507;SDS011;10915;54.352;9.074;2023-12-07T15:52:21;403.73;;;60.47;;
21507;SDS011;10915;54.352;9.074;2023-12-07T15:54:46;215.80;;;43.17;;
21507;SDS011;10915;54.352;9.074;2023-12-07T15:57:12;368.40;;;52.40;;
21507;SDS011;10915;54.352;9.074;2023-12-07T15:59:38;447.87;;;56.77;;
21507;SDS011;10915;54.352;9.074;2023-12-07T16:02:03;467.00;;;66.27;;
21507;SDS011;10915;54.352;9.074;2023-12-07T16:04:29;287.97;;;50.23;;